createdAt,value
2023-01-18T00:00:13.352Z,4.60
2023-01-18T00:02:41.011Z,5.90
2023-01-18T00:05:08.916Z,4.00
2023-01-18T00:07:36.385Z,4.13
2023-01-18T00:10:03.850Z,4.18
2023-01-18T00:12:32.900Z,5.38
2023-01-18T00:15:00.153Z,4.60
2023-01-18T00:17:27.414Z,4.07
2023-01-18T00:19:54.652Z,4.13
2023-01-18T00:22:21.970Z,4.60
2023-01-18T00:24:49.297Z,4.80
2023-01-18T00:27:16.643Z,4.18
2023-01-18T00:29:44.022Z,3.67
2023-01-18T00:32:11.286Z,3.85
2023-01-18T00:34:38.596Z,4.15
2023-01-18T00:37:05.824Z,3.95
2023-01-18T00:39:33.066Z,3.88
2023-01-18T00:42:18.555Z,3.88
2023-01-18T00:44:45.819Z,3.42
2023-01-18T00:47:13.552Z,3.55
2023-01-18T00:49:40.799Z,3.60
2023-01-18T00:52:08.241Z,3.53
2023-01-18T00:54:35.492Z,3.70
2023-01-18T00:57:02.836Z,2.85
2023-01-18T00:59:30.095Z,3.30
2023-01-18T01:01:57.628Z,3.50
2023-01-18T01:04:43.313Z,3.75
2023-01-18T01:07:11.074Z,3.03
2023-01-18T01:09:38.380Z,3.35
2023-01-18T01:12:24.408Z,3.80
2023-01-18T01:15:10.222Z,3.08
2023-01-18T01:17:57.108Z,4.25
2023-01-18T01:20:44.195Z,2.95
2023-01-18T01:23:36.754Z,3.10
2023-01-18T01:26:08.241Z,2.72
2023-01-18T01:28:49.475Z,2.88
2023-01-18T01:31:18.573Z,2.90
2023-01-18T01:33:49.047Z,2.80
2023-01-18T01:36:19.359Z,2.88
2023-01-18T01:38:47.089Z,2.75
2023-01-18T01:41:19.705Z,2.63
2023-01-18T01:43:53.083Z,2.63
2023-01-18T01:46:37.992Z,2.35
2023-01-18T01:49:28.392Z,2.63
2023-01-18T01:52:06.259Z,2.22
2023-01-18T01:54:42.099Z,2.30
2023-01-18T01:57:28.920Z,2.45
2023-01-18T02:00:06.875Z,2.03
2023-01-18T02:02:36.001Z,2.10
2023-01-18T02:05:06.733Z,2.40
2023-01-18T02:07:34.459Z,2.40
2023-01-18T02:10:03.181Z,2.35
2023-01-18T02:12:31.990Z,1.90
2023-01-18T02:15:00.385Z,2.45
2023-01-18T02:17:33.352Z,2.35
2023-01-18T02:20:25.227Z,2.28
2023-01-18T02:23:25.137Z,2.33
2023-01-18T02:26:12.679Z,1.80
2023-01-18T02:28:46.104Z,2.10
2023-01-18T02:31:23.385Z,2.58
2023-01-18T02:34:22.305Z,2.40
2023-01-18T02:37:25.351Z,2.78
2023-01-18T02:40:05.239Z,1.95
2023-01-18T02:42:53.870Z,1.60
2023-01-18T02:45:52.617Z,1.90
2023-01-18T02:48:24.817Z,1.60
2023-01-18T02:50:52.565Z,2.03
2023-01-18T02:53:20.164Z,1.85
2023-01-18T02:55:53.312Z,2.30
2023-01-18T02:58:40.790Z,1.90
2023-01-18T03:01:28.028Z,1.50
2023-01-18T03:04:01.465Z,2.03
2023-01-18T03:06:30.135Z,2.53
2023-01-18T03:08:59.767Z,2.17
2023-01-18T03:11:32.983Z,1.60
2023-01-18T03:14:03.300Z,1.95
2023-01-18T03:16:58.157Z,2.28
2023-01-18T03:20:07.426Z,3.15
2023-01-18T03:23:09.863Z,1.98
2023-01-18T03:25:49.877Z,1.95
2023-01-18T03:28:41.217Z,2.15
2023-01-18T03:31:35.043Z,2.10
2023-01-18T03:34:20.264Z,1.45
2023-01-18T03:36:52.454Z,1.45
2023-01-18T03:39:41.015Z,2.08
2023-01-18T03:42:32.379Z,2.17
2023-01-18T03:45:09.290Z,2.20
2023-01-18T03:47:36.765Z,1.70
2023-01-18T03:50:04.577Z,1.83
2023-01-18T03:52:37.946Z,1.40
2023-01-18T03:55:20.499Z,1.33
2023-01-18T03:58:06.202Z,2.08
2023-01-18T04:00:33.865Z,1.58
2023-01-18T04:03:01.699Z,1.30
2023-01-18T04:05:29.456Z,1.23
2023-01-18T04:07:56.761Z,1.30
2023-01-18T04:10:24.526Z,1.35
2023-01-18T04:12:51.768Z,1.23
2023-01-18T04:15:19.574Z,1.17
2023-01-18T04:17:49.734Z,1.02
2023-01-18T04:20:17.216Z,1.50
2023-01-18T04:22:44.522Z,1.15
2023-01-18T04:25:11.762Z,1.40
2023-01-18T04:27:39.050Z,1.45
2023-01-18T04:30:06.964Z,0.85
2023-01-18T04:32:34.607Z,1.58
2023-01-18T04:35:01.912Z,1.05
2023-01-18T04:37:31.031Z,1.45
2023-01-18T04:39:58.477Z,1.50
2023-01-18T04:42:26.183Z,1.35
2023-01-18T04:44:53.967Z,1.42
2023-01-18T04:47:21.338Z,0.90
2023-01-18T04:49:48.665Z,1.33
2023-01-18T04:52:17.808Z,0.80
2023-01-18T04:54:46.224Z,1.33
2023-01-18T04:57:13.451Z,1.20
2023-01-18T04:59:43.040Z,1.15
2023-01-18T05:02:10.352Z,1.23
2023-01-18T05:04:37.706Z,1.13
2023-01-18T05:07:05.152Z,1.58
2023-01-18T05:09:32.517Z,1.58
2023-01-18T05:11:59.802Z,1.50
2023-01-18T05:14:27.094Z,1.52
2023-01-18T05:16:54.378Z,1.20
2023-01-18T05:19:21.699Z,0.93
2023-01-18T05:21:49.001Z,1.52
2023-01-18T05:24:16.342Z,1.02
2023-01-18T05:26:43.614Z,2.33
2023-01-18T05:29:10.931Z,1.58
2023-01-18T05:31:38.284Z,1.45
2023-01-18T05:34:06.008Z,1.20
2023-01-18T05:36:33.395Z,1.17
2023-01-18T05:39:01.342Z,1.77
2023-01-18T05:41:28.627Z,1.25
2023-01-18T05:43:55.912Z,1.33
2023-01-18T05:46:23.179Z,1.42
2023-01-18T05:48:50.442Z,1.42
2023-01-18T05:51:17.678Z,1.33
2023-01-18T05:53:44.950Z,1.50
2023-01-18T05:56:12.220Z,1.30
2023-01-18T05:58:39.587Z,1.02
2023-01-18T06:01:10.228Z,1.67
2023-01-18T06:03:37.553Z,1.27
2023-01-18T06:06:04.999Z,1.30
2023-01-18T06:08:32.458Z,1.77
2023-01-18T06:11:00.780Z,1.25
2023-01-18T06:13:29.921Z,1.17
2023-01-18T06:15:58.942Z,1.92
2023-01-18T06:18:28.237Z,2.22
2023-01-18T06:20:59.073Z,1.63
2023-01-18T06:23:28.492Z,1.85
2023-01-18T06:25:55.904Z,1.98
2023-01-18T06:28:23.330Z,1.80
2023-01-18T06:30:54.893Z,2.53
2023-01-18T06:33:23.274Z,2.45
2023-01-18T06:35:50.925Z,3.38
2023-01-18T06:38:18.305Z,1.80
2023-01-18T06:40:45.612Z,2.70
2023-01-18T06:43:14.289Z,2.92
2023-01-18T06:45:41.795Z,3.30
2023-01-18T06:48:09.296Z,2.58
2023-01-18T06:50:36.698Z,3.22
2023-01-18T06:53:04.028Z,4.10
2023-01-18T06:55:31.318Z,4.03
2023-01-18T06:57:58.685Z,3.63
2023-01-18T07:00:26.033Z,4.15
2023-01-18T07:02:53.498Z,3.83
2023-01-18T07:05:21.182Z,4.93
2023-01-18T07:07:48.508Z,4.97
2023-01-18T07:10:16.773Z,5.00
2023-01-18T07:12:48.584Z,5.65
2023-01-18T07:15:21.835Z,8.30
2023-01-18T07:17:50.810Z,9.10
2023-01-18T07:20:19.917Z,5.15
2023-01-18T07:22:51.854Z,9.50
2023-01-18T07:25:20.644Z,6.05
2023-01-18T07:27:49.056Z,7.57
2023-01-18T07:30:17.443Z,6.57
2023-01-18T07:32:50.464Z,7.45
2023-01-18T07:35:20.149Z,8.43
2023-01-18T07:37:53.008Z,7.22
2023-01-18T07:40:21.794Z,7.95
2023-01-18T07:42:50.003Z,8.38
2023-01-18T07:45:17.495Z,8.55
2023-01-18T07:47:46.331Z,5.78
2023-01-18T07:50:16.796Z,8.05
2023-01-18T07:52:44.099Z,9.93
2023-01-18T07:55:11.648Z,10.60
2023-01-18T07:57:38.951Z,9.52
2023-01-18T08:00:07.456Z,9.60
2023-01-18T08:02:35.274Z,12.25
2023-01-18T08:05:03.696Z,7.53
2023-01-18T08:07:33.140Z,9.90
2023-01-18T08:10:00.357Z,11.13
2023-01-18T08:12:28.110Z,8.20
2023-01-18T08:14:55.416Z,7.75
2023-01-18T08:17:22.706Z,11.23
2023-01-18T08:19:50.020Z,10.77
2023-01-18T08:22:17.295Z,11.98
2023-01-18T08:24:44.602Z,15.55
2023-01-18T08:27:11.826Z,10.30
2023-01-18T08:29:39.119Z,12.52
2023-01-18T08:32:06.483Z,12.57
2023-01-18T08:34:33.766Z,14.35
2023-01-18T08:37:01.064Z,14.80
2023-01-18T08:39:29.479Z,10.07
2023-01-18T08:41:57.383Z,13.40
2023-01-18T08:44:24.939Z,13.30
2023-01-18T08:46:52.239Z,14.38
2023-01-18T08:49:19.557Z,14.48
2023-01-18T08:51:46.858Z,13.52
2023-01-18T08:54:14.156Z,15.52
2023-01-18T08:56:41.437Z,15.90
2023-01-18T08:59:09.664Z,14.05
2023-01-18T09:01:37.172Z,10.95
2023-01-18T09:04:04.476Z,11.95
2023-01-18T09:06:33.833Z,12.25
2023-01-18T09:09:01.845Z,12.35
2023-01-18T09:11:29.166Z,14.38
2023-01-18T09:14:01.432Z,13.50
2023-01-18T09:16:30.293Z,10.27
2023-01-18T09:18:58.435Z,13.98
2023-01-18T09:21:28.031Z,13.32
2023-01-18T09:23:55.395Z,12.95
2023-01-18T09:26:22.702Z,11.25
2023-01-18T09:28:52.492Z,9.77
2023-01-18T09:31:21.978Z,10.98
2023-01-18T09:33:53.673Z,10.93
2023-01-18T09:36:26.557Z,9.90
2023-01-18T09:38:57.404Z,11.55
2023-01-18T09:41:42.855Z,12.50
2023-01-18T09:44:26.540Z,9.68
2023-01-18T09:47:05.317Z,9.77
2023-01-18T09:49:40.923Z,8.75
2023-01-18T09:52:23.983Z,10.07
2023-01-18T09:55:06.421Z,9.18
2023-01-18T09:58:02.447Z,8.52
2023-01-18T10:00:33.589Z,7.03
2023-01-18T10:03:10.161Z,7.47
2023-01-18T10:05:53.867Z,7.32
2023-01-18T10:08:27.826Z,8.52
2023-01-18T10:11:23.628Z,7.53
2023-01-18T10:14:13.077Z,8.40
2023-01-18T10:16:40.561Z,8.40
2023-01-18T10:19:29.026Z,10.68
2023-01-18T10:22:00.909Z,7.18
2023-01-18T10:24:40.024Z,6.63
2023-01-18T10:27:36.735Z,5.68
2023-01-18T10:30:19.072Z,4.40
2023-01-18T10:32:55.091Z,5.47
2023-01-18T10:35:43.322Z,5.20
2023-01-18T10:38:16.765Z,5.40
2023-01-18T10:40:50.353Z,7.47
2023-01-18T10:43:21.591Z,7.35
2023-01-18T10:45:48.946Z,3.95
2023-01-18T10:48:32.317Z,5.72
2023-01-18T10:51:05.979Z,6.00
2023-01-18T10:53:36.516Z,3.85
2023-01-18T10:56:09.528Z,5.88
2023-01-18T10:58:46.253Z,6.70
2023-01-18T11:01:33.369Z,5.97
2023-01-18T11:04:21.985Z,5.03
2023-01-18T11:06:53.617Z,4.55
2023-01-18T11:09:46.624Z,3.47
2023-01-18T11:12:42.536Z,4.70
2023-01-18T11:15:16.085Z,3.85
2023-01-18T11:18:01.197Z,4.32
2023-01-18T11:23:14.214Z,3.42
2023-01-18T11:26:01.836Z,4.40
2023-01-18T11:28:39.284Z,3.10
2023-01-18T11:31:11.892Z,3.58
2023-01-18T11:33:50.777Z,3.55
2023-01-18T11:36:19.676Z,3.53
2023-01-18T11:38:47.987Z,3.70
2023-01-18T11:41:20.714Z,3.92
2023-01-18T11:44:05.848Z,3.47
2023-01-18T11:46:47.937Z,1.98
2023-01-18T11:49:37.762Z,3.22
2023-01-18T11:52:48.478Z,3.75
2023-01-18T11:55:31.232Z,2.78
2023-01-18T11:58:00.044Z,2.95
2023-01-18T12:00:38.822Z,3.92
2023-01-18T12:03:40.189Z,2.17
2023-01-18T12:06:32.534Z,3.30
2023-01-18T12:09:14.421Z,2.97
2023-01-18T12:12:17.912Z,1.92
2023-01-18T12:14:46.017Z,3.47
2023-01-18T12:18:11.785Z,2.22
2023-01-18T12:20:49.492Z,1.70
2023-01-18T12:23:27.177Z,2.78
2023-01-18T12:26:18.868Z,1.85
2023-01-18T12:28:55.414Z,1.52
2023-01-18T12:31:40.957Z,2.13
2023-01-18T12:34:08.227Z,2.25
2023-01-18T12:36:49.180Z,2.67
2023-01-18T12:39:54.807Z,4.63
2023-01-18T12:42:37.125Z,4.47
2023-01-18T12:45:25.686Z,1.58
2023-01-18T12:48:20.237Z,2.78
2023-01-18T12:50:51.081Z,1.30
2023-01-18T12:53:44.605Z,2.08
2023-01-18T12:56:20.158Z,2.55
2023-01-18T12:58:55.936Z,2.70
2023-01-18T13:01:27.309Z,2.05
2023-01-18T13:04:01.830Z,1.25
2023-01-18T13:06:30.195Z,2.58
2023-01-18T13:09:22.094Z,1.90
2023-01-18T13:11:49.910Z,2.90
2023-01-18T13:14:33.444Z,1.35
2023-01-18T13:17:44.979Z,1.80
2023-01-18T13:20:19.913Z,1.63
2023-01-18T13:23:05.635Z,1.92
2023-01-18T13:25:32.938Z,2.65
2023-01-18T13:28:23.298Z,1.92
2023-01-18T13:31:01.970Z,1.65
2023-01-18T13:33:47.733Z,1.25
2023-01-18T13:36:21.619Z,2.15
2023-01-18T13:38:56.154Z,1.92
2023-01-18T13:41:26.830Z,2.63
2023-01-18T13:43:58.557Z,1.33
2023-01-18T13:46:27.161Z,1.73
2023-01-18T13:49:00.262Z,1.45
2023-01-18T13:51:39.805Z,2.45
2023-01-18T13:54:39.645Z,1.63
2023-01-18T13:57:09.633Z,1.50
2023-01-18T13:59:50.049Z,2.17
2023-01-18T14:02:35.966Z,1.73
2023-01-18T14:05:25.685Z,1.88
2023-01-18T14:08:00.438Z,1.52
2023-01-18T14:10:39.008Z,1.20
2023-01-18T14:13:08.789Z,1.15
2023-01-18T14:15:50.029Z,1.80
2023-01-18T14:18:29.360Z,1.73
2023-01-18T14:21:18.816Z,2.15
2023-01-18T14:24:25.226Z,1.10
2023-01-18T14:26:56.154Z,1.75
2023-01-18T14:29:59.135Z,1.52
2023-01-18T14:32:33.407Z,0.75
2023-01-18T14:35:16.042Z,2.67
2023-01-18T14:37:43.321Z,1.52
2023-01-18T14:40:18.533Z,1.60
2023-01-18T14:42:59.985Z,1.25
2023-01-18T14:45:35.109Z,1.25
2023-01-18T14:48:12.117Z,1.67
2023-01-18T14:50:45.725Z,1.73
2023-01-18T14:53:25.782Z,1.63
2023-01-18T14:56:26.505Z,3.03
2023-01-18T14:59:05.135Z,1.98
2023-01-18T15:01:40.252Z,1.38
2023-01-18T15:04:20.222Z,1.75
2023-01-18T15:06:49.432Z,1.08
2023-01-18T15:09:21.369Z,1.35
2023-01-18T15:11:52.244Z,1.23
2023-01-18T15:14:41.758Z,3.38
2023-01-18T15:17:12.701Z,2.17
2023-01-18T15:19:43.949Z,1.60
2023-01-18T15:22:17.001Z,1.58
2023-01-18T15:24:45.582Z,1.63
2023-01-18T15:27:15.631Z,0.80
2023-01-18T15:29:51.524Z,3.92
2023-01-18T15:32:22.675Z,1.52
2023-01-18T15:34:51.987Z,2.13
2023-01-18T15:37:23.900Z,1.40
2023-01-18T15:40:21.829Z,1.80
2023-01-18T15:42:59.129Z,1.63
2023-01-18T15:45:49.351Z,2.05
2023-01-18T15:48:22.491Z,1.45
2023-01-18T15:50:52.705Z,2.97
2023-01-18T15:53:30.872Z,2.00
2023-01-18T15:55:59.535Z,2.05
2023-01-18T15:58:32.053Z,1.17
2023-01-18T16:01:18.027Z,1.23
2023-01-18T16:03:48.088Z,1.55
2023-01-18T16:06:37.501Z,1.10
2023-01-18T16:09:16.026Z,1.45
2023-01-18T16:11:47.645Z,1.33
2023-01-18T16:14:32.777Z,0.85
2023-01-18T16:19:51.960Z,1.20
2023-01-18T16:22:36.437Z,1.60
2023-01-18T16:25:16.082Z,1.02
2023-01-18T16:27:55.174Z,1.23
2023-01-18T16:30:33.952Z,1.67
2023-01-18T16:33:16.711Z,0.80
2023-01-18T16:35:47.933Z,1.15
2023-01-18T16:38:20.127Z,1.60
2023-01-18T16:40:49.810Z,1.25
2023-01-18T16:43:25.440Z,1.42
2023-01-18T16:45:55.447Z,1.25
2023-01-18T16:48:25.820Z,1.02
2023-01-18T16:50:56.026Z,0.98
2023-01-18T16:53:23.616Z,0.77
2023-01-18T16:55:50.934Z,1.40
2023-01-18T16:58:20.459Z,1.20
2023-01-18T17:01:06.183Z,1.35
2023-01-18T17:03:36.003Z,1.30
2023-01-18T17:06:03.741Z,1.35
2023-01-18T17:08:31.091Z,1.30
2023-01-18T17:10:58.464Z,1.23
2023-01-18T17:13:26.026Z,1.50
2023-01-18T17:15:54.095Z,1.40
2023-01-18T17:18:26.999Z,1.10
2023-01-18T17:20:55.339Z,1.95
2023-01-18T17:23:25.619Z,2.30
2023-01-18T17:25:52.941Z,1.38
2023-01-18T17:28:20.828Z,2.28
2023-01-18T17:30:49.681Z,1.38
2023-01-18T17:33:26.625Z,1.58
2023-01-18T17:35:55.220Z,1.02
2023-01-18T17:38:25.020Z,2.00
2023-01-18T17:40:53.964Z,1.70
2023-01-18T17:43:33.508Z,2.97
2023-01-18T17:46:05.444Z,1.58
2023-01-18T17:48:32.922Z,2.53
2023-01-18T17:51:00.275Z,2.00
2023-01-18T17:53:27.781Z,2.75
2023-01-18T17:55:55.050Z,2.00
2023-01-18T17:58:22.585Z,2.40
2023-01-18T18:00:49.944Z,2.00
2023-01-18T18:03:17.387Z,2.10
2023-01-18T18:05:45.264Z,1.55
2023-01-18T18:08:12.593Z,2.03
2023-01-18T18:10:43.740Z,4.30
2023-01-18T18:13:11.162Z,3.10
2023-01-18T18:15:38.576Z,2.33
2023-01-18T18:18:12.308Z,4.07
2023-01-18T18:20:49.790Z,1.88
2023-01-18T18:23:17.125Z,1.92
2023-01-18T18:25:46.969Z,3.50
2023-01-18T18:28:14.228Z,1.35
2023-01-18T18:30:41.681Z,2.53
2023-01-18T18:33:09.014Z,2.55
2023-01-18T18:35:36.319Z,2.67
2023-01-18T18:38:03.666Z,2.45
2023-01-18T18:40:31.167Z,2.33
2023-01-18T18:43:03.100Z,2.95
2023-01-18T18:45:31.992Z,2.75
2023-01-18T18:47:59.873Z,2.28
2023-01-18T18:50:27.957Z,2.50
2023-01-18T18:52:55.230Z,2.47
2023-01-18T18:55:22.879Z,3.08
2023-01-18T18:57:50.536Z,2.70
2023-01-18T19:00:18.437Z,2.03
2023-01-18T19:02:46.952Z,2.58
2023-01-18T19:05:15.175Z,2.78
2023-01-18T19:07:43.036Z,3.28
2023-01-18T19:10:11.551Z,1.95
2023-01-18T19:12:38.885Z,2.00
2023-01-18T19:15:06.546Z,2.40
2023-01-18T19:17:33.841Z,2.75
2023-01-18T19:20:01.129Z,3.55
2023-01-18T19:22:28.393Z,2.08
2023-01-18T19:24:55.753Z,2.90
2023-01-18T19:27:24.559Z,2.28
2023-01-18T19:29:53.232Z,2.55
2023-01-18T19:32:20.677Z,2.58
2023-01-18T19:34:47.950Z,2.33
2023-01-18T19:37:15.274Z,2.67
2023-01-18T19:39:42.613Z,2.00
2023-01-18T19:42:09.917Z,3.15
2023-01-18T19:44:37.209Z,1.77
2023-01-18T19:47:04.628Z,3.53
2023-01-18T19:49:31.958Z,1.75
2023-01-18T19:51:59.431Z,2.97
2023-01-18T19:54:26.791Z,2.72
2023-01-18T19:56:54.080Z,2.35
2023-01-18T19:59:21.494Z,3.20
2023-01-18T20:01:48.952Z,2.28
2023-01-18T20:04:16.457Z,2.30
2023-01-18T20:06:46.011Z,2.50
2023-01-18T20:09:27.066Z,2.22
2023-01-18T20:12:01.544Z,3.15
2023-01-18T20:14:40.342Z,2.33
2023-01-18T20:17:09.462Z,2.92
2023-01-18T20:19:36.793Z,3.30
2023-01-18T20:22:04.131Z,2.70
2023-01-18T20:24:31.496Z,3.70
2023-01-18T20:27:14.953Z,2.38
2023-01-18T20:29:43.862Z,2.85
2023-01-18T20:32:17.261Z,3.58
2023-01-18T20:34:46.875Z,2.93
2023-01-18T20:37:15.400Z,3.88
2023-01-18T20:39:42.803Z,2.55
2023-01-18T20:42:10.420Z,2.65
2023-01-18T20:44:37.853Z,2.20
2023-01-18T20:47:05.728Z,3.22
2023-01-18T20:49:38.274Z,2.85
2023-01-18T20:52:07.373Z,5.03
2023-01-18T20:54:36.373Z,6.68
2023-01-18T20:57:05.444Z,7.82
2023-01-18T20:59:33.109Z,8.88
2023-01-18T21:02:00.615Z,12.15
2023-01-18T21:04:27.995Z,11.95
2023-01-18T21:06:57.270Z,11.57
2023-01-18T21:09:25.603Z,11.45
2023-01-18T21:11:52.925Z,12.27
2023-01-18T21:14:20.286Z,14.40
2023-01-18T21:16:48.072Z,15.63
2023-01-18T21:19:15.504Z,16.45
2023-01-18T21:21:42.800Z,16.95
2023-01-18T21:24:10.653Z,13.70
2023-01-18T21:26:38.038Z,13.48
2023-01-18T21:29:06.053Z,14.63
2023-01-18T21:31:33.377Z,11.38
2023-01-18T21:34:00.685Z,11.70
2023-01-18T21:36:28.077Z,19.17
2023-01-18T21:38:55.539Z,14.55
2023-01-18T21:41:41.772Z,17.00
2023-01-18T21:44:30.335Z,16.25
2023-01-18T21:46:58.914Z,11.90
2023-01-18T21:50:15.328Z,14.82
2023-01-18T21:55:18.581Z,11.52
2023-01-18T21:58:06.208Z,10.13
2023-01-18T22:00:36.026Z,9.07
2023-01-18T22:03:03.413Z,13.10
2023-01-18T22:05:30.807Z,10.55
2023-01-18T22:07:58.465Z,8.95
2023-01-18T22:10:25.967Z,8.80
2023-01-18T22:12:53.414Z,10.07
2023-01-18T22:15:22.990Z,9.10
2023-01-18T22:17:50.340Z,7.85
2023-01-18T22:20:18.427Z,8.80
2023-01-18T22:22:46.554Z,8.45
2023-01-18T22:25:13.997Z,8.88
2023-01-18T22:27:41.269Z,9.45
2023-01-18T22:30:11.438Z,7.65
2023-01-18T22:32:38.694Z,9.07
2023-01-18T22:35:06.241Z,6.82
2023-01-18T22:37:33.602Z,8.80
2023-01-18T22:40:01.147Z,7.85
2023-01-18T22:42:28.573Z,7.40
2023-01-18T22:44:55.898Z,5.13
2023-01-18T22:47:23.202Z,7.75
2023-01-18T22:49:50.546Z,5.97
2023-01-18T22:52:17.907Z,5.13
2023-01-18T22:54:45.305Z,5.75
2023-01-18T22:57:12.576Z,4.35
2023-01-18T22:59:39.827Z,5.72
2023-01-18T23:02:07.110Z,5.63
2023-01-18T23:04:34.525Z,4.70
2023-01-18T23:07:02.002Z,4.90
2023-01-18T23:09:29.555Z,4.88
2023-01-18T23:11:56.986Z,3.50
2023-01-18T23:14:43.314Z,4.25
2023-01-18T23:17:30.517Z,3.67
2023-01-18T23:19:57.866Z,5.05
2023-01-18T23:22:25.190Z,3.72
2023-01-18T23:24:52.535Z,3.90
2023-01-18T23:27:19.952Z,3.80
2023-01-18T23:29:51.459Z,3.58
2023-01-18T23:32:18.795Z,3.30
2023-01-18T23:34:47.796Z,3.03
2023-01-18T23:37:15.141Z,3.03
2023-01-18T23:40:00.868Z,4.53
2023-01-18T23:42:46.833Z,3.65
2023-01-18T23:45:32.794Z,3.90
2023-01-18T23:48:30.906Z,3.85
2023-01-18T23:51:17.218Z,4.57
2023-01-18T23:54:03.198Z,4.90
2023-01-18T23:56:30.875Z,3.80
2023-01-18T23:58:59.020Z,2.63
